Middle Brook, Missouri
Current Conditions -  °F | °C
As of 6:35 AM on Monday 22 Dec 2014 (Local Time) from KFAM Reporting Station
Overcast Overcast  
Wind Chill: 36°   Ceiling: 1000
Heat Index: 43°   Visibility: 10mi
Dew Point: 39°   Wind: 13mph
Humidity: 87%   Direction: 100°E
Pressure: 29.79"   Gusts: NA
Location:  37.66°N, 90.65°W
Report Text: KFAM 221235Z AUTO 10011KT 10SM OVC010 06/04 A2979 RMK AO1 P0001
Loading
Personal Weather Stations






























Interactive Weather Map New forecast layout! Learn more

10-Day Weather Forecast

Advertisements
Track Severe Weather on mobile